createdAt,value
2019-05-12T00:00:40.671Z,7.90
2019-05-12T00:03:11.614Z,7.90
2019-05-12T00:05:42.418Z,7.90
2019-05-12T00:08:12.877Z,7.80
2019-05-12T00:10:43.434Z,7.80
2019-05-12T00:13:14.157Z,7.80
2019-05-12T00:15:47.673Z,7.70
2019-05-12T00:18:18.124Z,7.70
2019-05-12T00:20:49.515Z,7.60
2019-05-12T00:23:26.904Z,7.60
2019-05-12T00:25:53.397Z,7.60
2019-05-12T00:28:24.600Z,7.50
2019-05-12T00:30:55.331Z,7.50
2019-05-12T00:33:27.997Z,7.50
2019-05-12T00:35:58.735Z,7.50
2019-05-12T00:38:30.163Z,7.60
2019-05-12T00:41:01.357Z,7.50
2019-05-12T00:43:32.187Z,7.60
2019-05-12T00:46:03.243Z,7.60
2019-05-12T00:48:34.187Z,7.60
2019-05-12T00:51:07.590Z,7.60
2019-05-12T00:53:43.161Z,7.60
2019-05-12T00:56:10.663Z,7.60
2019-05-12T00:58:41.855Z,7.60
2019-05-12T01:01:12.593Z,7.60
2019-05-12T01:03:43.047Z,7.50
2019-05-12T01:06:14.066Z,7.50
2019-05-12T01:08:45.197Z,7.50
2019-05-12T01:11:17.720Z,7.50
2019-05-12T01:13:48.909Z,7.50
2019-05-12T01:16:19.427Z,7.50
2019-05-12T01:18:50.002Z,7.40
2019-05-12T01:21:20.744Z,7.40
2019-05-12T01:23:57.093Z,7.30
2019-05-12T01:26:23.661Z,7.30
2019-05-12T01:28:54.778Z,7.30
2019-05-12T01:31:29.155Z,7.20
2019-05-12T01:33:59.462Z,7.20
2019-05-12T01:36:30.500Z,7.10
2019-05-12T01:39:01.913Z,7.00
2019-05-12T01:41:34.030Z,7.00
2019-05-12T01:44:04.474Z,6.90
2019-05-12T01:46:38.144Z,6.80
2019-05-12T01:49:08.472Z,6.80
2019-05-12T01:51:40.870Z,6.70
2019-05-12T01:54:14.877Z,6.70
2019-05-12T01:56:42.956Z,6.70
2019-05-12T01:59:12.690Z,6.70
2019-05-12T02:01:43.217Z,6.70
2019-05-12T02:04:13.998Z,6.70
2019-05-12T02:06:45.099Z,6.60
2019-05-12T02:09:18.692Z,6.60
2019-05-12T02:11:49.842Z,6.60
2019-05-12T02:14:20.598Z,6.60
2019-05-12T02:16:51.522Z,6.60
2019-05-12T02:19:21.856Z,6.70
2019-05-12T02:21:52.392Z,6.70
2019-05-12T02:24:27.365Z,6.80
2019-05-12T02:26:57.869Z,6.90
2019-05-12T02:29:28.911Z,6.90
2019-05-12T02:32:00.063Z,6.90
2019-05-12T02:34:31.227Z,6.90
2019-05-12T02:37:05.251Z,6.90
2019-05-12T02:39:35.231Z,6.90
2019-05-12T02:42:06.697Z,6.90
2019-05-12T02:44:37.436Z,6.90
2019-05-12T02:47:07.700Z,6.90
2019-05-12T02:49:38.640Z,6.80
2019-05-12T02:52:08.596Z,6.80
2019-05-12T02:54:51.794Z,6.70
2019-05-12T02:57:15.227Z,6.70
2019-05-12T02:59:48.341Z,6.60
2019-05-12T03:02:20.800Z,6.60
2019-05-12T03:04:55.024Z,6.60
2019-05-12T03:07:28.810Z,6.60
2019-05-12T03:10:04.996Z,6.50
2019-05-12T03:12:36.071Z,6.50
2019-05-12T03:15:08.236Z,6.40
2019-05-12T03:17:39.783Z,6.30
2019-05-12T03:20:10.432Z,6.30
2019-05-12T03:22:40.961Z,6.20
2019-05-12T03:25:23.966Z,6.20
2019-05-12T03:27:44.760Z,6.20
2019-05-12T03:30:19.193Z,6.10
2019-05-12T03:32:48.243Z,6.00
2019-05-12T03:35:19.863Z,6.00
2019-05-12T03:37:50.335Z,6.00
2019-05-12T03:40:24.652Z,6.00
2019-05-12T03:42:54.974Z,6.00
2019-05-12T03:45:25.340Z,6.00
2019-05-12T03:47:57.422Z,5.90
2019-05-12T03:50:27.901Z,6.00
2019-05-12T03:52:58.909Z,5.90
2019-05-12T03:55:35.966Z,5.90
2019-05-12T03:58:04.466Z,5.90
2019-05-12T04:00:35.697Z,5.80
2019-05-12T04:03:08.082Z,5.80
2019-05-12T04:05:38.957Z,5.80
2019-05-12T04:08:09.702Z,5.80
2019-05-12T04:10:40.221Z,5.80
2019-05-12T04:13:10.743Z,5.90
2019-05-12T04:15:41.484Z,5.90
2019-05-12T04:18:15.484Z,5.90
2019-05-12T04:20:45.366Z,5.90
2019-05-12T04:23:15.912Z,6.00
2019-05-12T04:25:52.652Z,6.00
2019-05-12T04:28:19.695Z,6.00
2019-05-12T04:30:50.436Z,6.10
2019-05-12T04:33:20.962Z,6.10
2019-05-12T04:35:55.180Z,6.20
2019-05-12T04:38:24.869Z,6.20
2019-05-12T04:40:56.067Z,6.20
2019-05-12T04:43:26.936Z,6.20
2019-05-12T04:45:57.725Z,6.30
2019-05-12T04:48:28.459Z,6.30
2019-05-12T04:50:58.816Z,6.40
2019-05-12T04:53:29.538Z,6.40
2019-05-12T04:56:10.966Z,6.50
2019-05-12T04:58:35.060Z,6.60
2019-05-12T05:01:06.482Z,6.60
2019-05-12T05:03:36.991Z,6.70
2019-05-12T05:06:08.128Z,6.70
2019-05-12T05:08:39.078Z,6.80
2019-05-12T05:11:09.613Z,6.80
2019-05-12T05:13:44.175Z,6.90
2019-05-12T05:16:14.523Z,6.90
2019-05-12T05:18:45.394Z,7.00
2019-05-12T05:21:16.252Z,7.00
2019-05-12T05:23:46.744Z,7.10
2019-05-12T05:26:24.582Z,7.20
2019-05-12T05:28:50.716Z,7.30
2019-05-12T05:31:24.167Z,7.40
2019-05-12T05:33:54.642Z,7.50
2019-05-12T05:36:25.384Z,7.50
2019-05-12T05:38:57.337Z,7.60
2019-05-12T05:41:28.276Z,7.70
2019-05-12T05:43:58.800Z,7.90
2019-05-12T05:46:29.569Z,8.00
2019-05-12T05:49:00.914Z,8.10
2019-05-12T05:51:33.492Z,8.20
2019-05-12T05:54:05.475Z,8.40
2019-05-12T05:56:42.398Z,8.50
2019-05-12T05:59:08.579Z,8.60
2019-05-12T06:01:40.036Z,8.60
2019-05-12T06:04:13.683Z,8.70
2019-05-12T06:06:50.568Z,8.70
2019-05-12T06:09:17.273Z,8.80
2019-05-12T06:11:47.932Z,8.90
2019-05-12T06:14:19.363Z,8.90
2019-05-12T06:16:49.695Z,9.00
2019-05-12T06:19:23.413Z,9.00
2019-05-12T06:21:53.415Z,8.90
2019-05-12T06:24:24.315Z,9.00
2019-05-12T06:27:00.364Z,9.20
2019-05-12T06:29:27.895Z,9.30
2019-05-12T06:31:59.967Z,9.40
2019-05-12T06:34:31.414Z,9.50
2019-05-12T06:37:10.799Z,9.60
2019-05-12T06:39:34.480Z,9.60
2019-05-12T06:42:12.562Z,9.70
2019-05-12T06:44:37.389Z,9.70
2019-05-12T06:47:08.587Z,9.90
2019-05-12T06:49:39.510Z,10.00
2019-05-12T06:52:09.667Z,10.20
2019-05-12T06:54:44.574Z,10.40
2019-05-12T06:57:22.269Z,10.50
2019-05-12T06:59:50.979Z,10.70
2019-05-12T07:02:18.757Z,10.80
2019-05-12T07:04:54.221Z,10.90
2019-05-12T07:07:25.602Z,11.10
2019-05-12T07:10:02.220Z,11.10
2019-05-12T07:12:36.674Z,11.10
2019-05-12T07:15:00.671Z,11.10
2019-05-12T07:17:45.501Z,11.30
2019-05-12T07:20:16.661Z,11.50
2019-05-12T07:22:48.821Z,11.70
2019-05-12T07:25:22.877Z,11.80
2019-05-12T07:27:59.899Z,11.90
2019-05-12T07:30:31.870Z,12.10
2019-05-12T07:33:04.513Z,12.10
2019-05-12T07:35:35.795Z,12.00
2019-05-12T07:38:06.114Z,12.00
2019-05-12T07:40:38.049Z,12.00
2019-05-12T07:43:16.175Z,12.00
2019-05-12T07:45:46.923Z,12.10
2019-05-12T07:48:18.135Z,12.10
2019-05-12T07:50:50.241Z,12.10
2019-05-12T07:53:23.347Z,11.90
2019-05-12T07:55:53.766Z,11.70
2019-05-12T07:58:24.286Z,11.70
2019-05-12T08:01:02.606Z,11.90
2019-05-12T08:03:27.677Z,11.80
2019-05-12T08:06:01.684Z,11.70
2019-05-12T08:08:30.505Z,11.60
2019-05-12T08:11:04.194Z,11.80
2019-05-12T08:13:37.858Z,12.00
2019-05-12T08:16:07.508Z,12.10
2019-05-12T08:18:41.024Z,12.10
2019-05-12T08:21:13.814Z,12.10
2019-05-12T08:23:44.612Z,12.10
2019-05-12T08:26:18.521Z,12.10
2019-05-12T08:28:47.752Z,12.20
2019-05-12T08:31:25.863Z,12.30
2019-05-12T08:33:53.815Z,12.40
2019-05-12T08:36:24.480Z,12.30
2019-05-12T08:38:55.414Z,12.30
2019-05-12T08:41:25.502Z,12.40
2019-05-12T08:43:58.501Z,12.60
2019-05-12T08:46:28.810Z,12.50
2019-05-12T08:49:02.194Z,12.50
2019-05-12T08:51:33.942Z,12.60
2019-05-12T08:54:07.843Z,12.80
2019-05-12T08:56:38.166Z,13.10
2019-05-12T08:59:12.994Z,13.20
2019-05-12T09:01:43.771Z,13.50
2019-05-12T09:04:18.074Z,13.70
2019-05-12T09:06:50.251Z,13.80
2019-05-12T09:09:19.640Z,13.90
2019-05-12T09:11:50.586Z,13.90
2019-05-12T09:14:23.742Z,14.10
2019-05-12T09:17:02.019Z,14.40
2019-05-12T09:19:27.258Z,14.80
2019-05-12T09:21:57.601Z,15.30
2019-05-12T09:24:28.376Z,15.90
2019-05-12T09:27:04.971Z,16.20
2019-05-12T09:29:31.496Z,16.10
2019-05-12T09:32:05.461Z,15.70
2019-05-12T09:34:36.033Z,15.40
2019-05-12T09:37:06.522Z,15.20
2019-05-12T09:39:42.647Z,15.00
2019-05-12T09:42:10.089Z,15.10
2019-05-12T09:44:41.409Z,15.40
2019-05-12T09:47:23.307Z,15.40
2019-05-12T09:49:45.923Z,15.40
2019-05-12T09:52:22.163Z,16.40
2019-05-12T09:54:48.604Z,17.70
2019-05-12T09:57:19.125Z,18.00
2019-05-12T09:59:57.273Z,17.80
2019-05-12T10:02:23.771Z,17.60
2019-05-12T10:04:59.086Z,18.10
2019-05-12T10:07:27.877Z,19.00
2019-05-12T10:09:59.197Z,19.40
2019-05-12T10:12:36.605Z,19.60
2019-05-12T10:15:04.295Z,20.10
2019-05-12T10:17:34.913Z,19.90
2019-05-12T10:20:06.536Z,18.80
2019-05-12T10:22:40.273Z,17.70
2019-05-12T10:25:14.387Z,17.00
2019-05-12T10:27:49.385Z,17.70
2019-05-12T10:30:20.585Z,18.60
2019-05-12T10:32:51.033Z,18.40
2019-05-12T10:35:24.533Z,17.80
2019-05-12T10:37:54.803Z,17.20
2019-05-12T10:40:25.547Z,16.60
2019-05-12T10:42:56.088Z,16.40
2019-05-12T10:45:29.686Z,16.40
2019-05-12T10:47:59.894Z,16.60
2019-05-12T10:50:29.933Z,16.70
2019-05-12T10:53:01.488Z,16.70
2019-05-12T10:55:33.523Z,16.90
2019-05-12T10:58:07.254Z,17.10
2019-05-12T11:00:38.641Z,17.40
2019-05-12T11:03:12.160Z,18.30
2019-05-12T11:05:44.057Z,18.70
2019-05-12T11:08:15.549Z,18.50
2019-05-12T11:10:50.299Z,18.20
2019-05-12T11:13:19.075Z,18.00
2019-05-12T11:15:50.232Z,17.70
2019-05-12T11:18:26.024Z,17.60
2019-05-12T11:20:55.520Z,18.20
2019-05-12T11:23:26.095Z,18.80
2019-05-12T11:25:57.273Z,18.90
2019-05-12T11:28:27.608Z,18.90
2019-05-12T11:30:58.134Z,18.80
2019-05-12T11:33:29.492Z,18.60
2019-05-12T11:36:00.430Z,18.80
2019-05-12T11:38:33.579Z,19.80
2019-05-12T11:41:04.244Z,19.60
2019-05-12T11:43:35.924Z,19.90
2019-05-12T11:46:06.459Z,20.20
2019-05-12T11:48:40.311Z,20.90
2019-05-12T11:51:09.778Z,21.90
2019-05-12T11:53:40.742Z,23.10
2019-05-12T11:56:13.755Z,24.30
2019-05-12T11:58:47.431Z,24.80
2019-05-12T12:01:18.670Z,23.80
2019-05-12T12:03:49.620Z,22.30
2019-05-12T12:06:20.762Z,20.70
2019-05-12T12:08:53.521Z,20.50
2019-05-12T12:11:27.669Z,21.60
2019-05-12T12:14:00.357Z,23.30
2019-05-12T12:16:29.460Z,24.20
2019-05-12T12:19:02.618Z,24.40
2019-05-12T12:21:35.110Z,24.40
2019-05-12T12:24:05.145Z,25.20
2019-05-12T12:26:37.330Z,25.70
2019-05-12T12:29:08.274Z,26.20
2019-05-12T12:31:49.841Z,27.00
2019-05-12T12:34:30.249Z,27.60
2019-05-12T12:37:03.302Z,27.30
2019-05-12T12:39:33.902Z,26.20
2019-05-12T12:42:05.063Z,24.30
2019-05-12T12:44:35.591Z,22.90
2019-05-12T12:47:06.300Z,22.60
2019-05-12T12:49:42.544Z,23.70
2019-05-12T12:52:09.070Z,24.90
2019-05-12T12:54:39.767Z,25.90
2019-05-12T12:57:13.458Z,26.10
2019-05-12T12:59:50.977Z,25.90
2019-05-12T13:02:15.923Z,26.10
2019-05-12T13:04:50.204Z,26.00
2019-05-12T13:07:18.575Z,25.50
2019-05-12T13:09:48.895Z,24.60
2019-05-12T13:12:19.897Z,25.10
2019-05-12T13:14:53.220Z,25.90
2019-05-12T13:17:29.023Z,26.70
2019-05-12T13:19:58.854Z,27.20
2019-05-12T13:22:29.821Z,27.50
2019-05-12T13:25:04.405Z,27.30
2019-05-12T13:27:36.802Z,26.70
2019-05-12T13:30:18.521Z,26.70
2019-05-12T13:32:40.499Z,26.60
2019-05-12T13:35:16.491Z,27.20
2019-05-12T13:37:44.287Z,27.70
2019-05-12T13:40:16.241Z,27.60
2019-05-12T13:42:46.987Z,27.30
2019-05-12T13:45:17.875Z,27.30
2019-05-12T13:47:48.680Z,26.70
2019-05-12T13:50:26.212Z,25.40
2019-05-12T13:52:54.057Z,25.50
2019-05-12T13:55:24.983Z,26.40
2019-05-12T13:57:57.752Z,26.90
2019-05-12T14:00:27.843Z,27.30
2019-05-12T14:03:04.866Z,27.70
2019-05-12T14:05:31.624Z,28.00
2019-05-12T14:08:03.946Z,28.30
2019-05-12T14:10:37.645Z,28.50
2019-05-12T14:13:08.344Z,28.80
2019-05-12T14:15:39.494Z,28.20
2019-05-12T14:18:15.584Z,27.00
2019-05-12T14:20:44.951Z,27.10
2019-05-12T14:23:15.426Z,27.00
2019-05-12T14:25:46.984Z,26.90
2019-05-12T14:28:17.701Z,26.90
2019-05-12T14:30:51.572Z,26.80
2019-05-12T14:33:20.055Z,27.00
2019-05-12T14:35:53.552Z,26.70
2019-05-12T14:38:29.661Z,25.80
2019-05-12T14:41:01.141Z,24.80
2019-05-12T14:43:29.290Z,24.40
2019-05-12T14:46:05.011Z,24.70
2019-05-12T14:48:33.588Z,24.50
2019-05-12T14:51:04.792Z,23.40
2019-05-12T14:53:38.392Z,22.70
2019-05-12T14:56:08.927Z,22.80
2019-05-12T14:58:40.685Z,23.10
2019-05-12T15:01:11.218Z,22.70
2019-05-12T15:03:42.390Z,22.10
2019-05-12T15:06:14.347Z,21.60
2019-05-12T15:08:45.419Z,21.20
2019-05-12T15:11:16.842Z,20.70
2019-05-12T15:13:47.980Z,20.20
2019-05-12T15:16:18.882Z,19.90
2019-05-12T15:18:50.251Z,19.80
2019-05-12T15:21:21.314Z,19.90
2019-05-12T15:23:54.218Z,20.00
2019-05-12T15:26:25.570Z,20.00
2019-05-12T15:28:56.253Z,19.90
2019-05-12T15:31:27.068Z,20.00
2019-05-12T15:33:57.920Z,20.00
2019-05-12T15:36:30.366Z,20.00
2019-05-12T15:39:00.875Z,19.80
2019-05-12T15:41:33.143Z,19.70
2019-05-12T15:44:06.494Z,19.50
2019-05-12T15:46:41.611Z,19.50
2019-05-12T15:49:09.715Z,19.30
2019-05-12T15:51:53.090Z,19.20
2019-05-12T15:54:14.608Z,19.00
2019-05-12T15:56:44.833Z,18.90
2019-05-12T15:59:17.455Z,18.60
2019-05-12T16:01:47.967Z,18.50
2019-05-12T16:04:18.857Z,18.50
2019-05-12T16:06:53.489Z,18.50
2019-05-12T16:09:23.798Z,18.50
2019-05-12T16:11:54.533Z,18.50
2019-05-12T16:14:30.623Z,18.50
2019-05-12T16:16:58.164Z,18.60
2019-05-12T16:19:28.813Z,18.60
2019-05-12T16:22:03.477Z,18.60
2019-05-12T16:24:34.126Z,18.60
2019-05-12T16:27:05.265Z,18.40
2019-05-12T16:29:38.856Z,18.20
2019-05-12T16:32:08.069Z,18.00
2019-05-12T16:34:44.836Z,17.80
2019-05-12T16:37:13.909Z,17.80
2019-05-12T16:39:47.261Z,17.70
2019-05-12T16:42:16.805Z,17.60
2019-05-12T16:44:48.704Z,17.60
2019-05-12T16:47:25.068Z,17.50
2019-05-12T16:49:53.939Z,17.60
2019-05-12T16:52:24.452Z,17.60
2019-05-12T16:54:55.541Z,17.60
2019-05-12T16:57:26.153Z,17.70
2019-05-12T17:00:03.603Z,17.90
2019-05-12T17:02:39.430Z,17.90
2019-05-12T17:05:06.637Z,18.10
2019-05-12T17:07:34.418Z,18.20
2019-05-12T17:10:15.893Z,18.30
2019-05-12T17:12:43.730Z,18.30
2019-05-12T17:15:15.318Z,18.30
2019-05-12T17:17:50.699Z,18.20
2019-05-12T17:20:18.722Z,18.00
2019-05-12T17:22:54.588Z,17.90
2019-05-12T17:25:23.770Z,17.80
2019-05-12T17:27:58.086Z,17.70
2019-05-12T17:30:29.239Z,17.70
2019-05-12T17:33:02.549Z,17.60
2019-05-12T17:35:34.869Z,17.70
2019-05-12T17:38:05.210Z,17.70
2019-05-12T17:40:36.364Z,17.70
2019-05-12T17:43:11.858Z,17.60
2019-05-12T17:45:39.648Z,17.40
2019-05-12T17:48:10.432Z,17.20
2019-05-12T17:50:46.698Z,17.10
2019-05-12T17:53:17.539Z,16.80
2019-05-12T17:55:50.990Z,16.60
2019-05-12T17:58:20.726Z,16.50
2019-05-12T18:00:51.966Z,16.30
2019-05-12T18:03:25.745Z,16.20
2019-05-12T18:05:56.452Z,16.00
2019-05-12T18:08:32.746Z,16.00
2019-05-12T18:10:59.982Z,15.90
2019-05-12T18:13:30.711Z,15.90
2019-05-12T18:16:05.338Z,15.90
2019-05-12T18:18:38.004Z,15.80
2019-05-12T18:21:05.792Z,15.70
2019-05-12T18:23:37.552Z,15.60
2019-05-12T18:26:14.359Z,15.50
2019-05-12T18:28:44.234Z,15.50
2019-05-12T18:31:17.580Z,15.40
2019-05-12T18:33:51.900Z,15.30
2019-05-12T18:36:20.381Z,15.20
2019-05-12T18:38:56.353Z,15.10
2019-05-12T18:41:24.434Z,15.00
2019-05-12T18:43:54.632Z,14.90
2019-05-12T18:46:25.671Z,14.80
2019-05-12T18:49:02.978Z,14.70
2019-05-12T18:51:28.727Z,14.60
2019-05-12T18:54:03.582Z,14.60
2019-05-12T18:56:33.698Z,14.50
2019-05-12T18:59:11.345Z,14.40
2019-05-12T19:01:37.371Z,14.30
2019-05-12T19:04:08.353Z,14.20
2019-05-12T19:06:38.951Z,14.20
2019-05-12T19:09:10.319Z,14.10
2019-05-12T19:11:42.275Z,14.00
2019-05-12T19:14:14.067Z,14.00
2019-05-12T19:16:45.795Z,14.00
2019-05-12T19:19:20.057Z,13.90
2019-05-12T19:21:58.848Z,13.90
2019-05-12T19:24:20.457Z,13.90
2019-05-12T19:26:53.982Z,13.80
2019-05-12T19:29:24.517Z,13.80
2019-05-12T19:31:58.012Z,13.80
2019-05-12T19:34:31.743Z,13.70
2019-05-12T19:37:03.339Z,13.70
2019-05-12T19:39:34.003Z,13.70
2019-05-12T19:42:05.049Z,13.60
2019-05-12T19:44:36.007Z,13.50
2019-05-12T19:47:06.273Z,13.50
2019-05-12T19:49:46.666Z,13.40
2019-05-12T19:52:09.451Z,13.30
2019-05-12T19:54:40.032Z,13.20
2019-05-12T19:57:15.104Z,13.20
2019-05-12T19:59:50.506Z,13.10
2019-05-12T20:02:16.237Z,13.00
2019-05-12T20:04:52.039Z,12.90
2019-05-12T20:07:19.217Z,12.80
2019-05-12T20:09:55.996Z,12.70
2019-05-12T20:12:23.975Z,12.60
2019-05-12T20:14:56.904Z,12.50
2019-05-12T20:17:27.022Z,12.40
2019-05-12T20:19:58.023Z,12.30
2019-05-12T20:22:28.754Z,12.20
2019-05-12T20:24:59.703Z,12.10
2019-05-12T20:27:30.247Z,12.10
2019-05-12T20:30:01.057Z,12.00
2019-05-12T20:32:34.394Z,11.90
2019-05-12T20:35:06.952Z,11.80
2019-05-12T20:37:37.906Z,11.80
2019-05-12T20:40:10.066Z,11.70
2019-05-12T20:42:44.203Z,11.70
2019-05-12T20:45:15.238Z,11.60
2019-05-12T20:47:47.608Z,11.60
2019-05-12T20:50:25.965Z,11.50
2019-05-12T20:52:58.518Z,11.50
2019-05-12T20:55:24.738Z,11.40
2019-05-12T20:57:56.905Z,11.40
2019-05-12T21:00:28.057Z,11.30
2019-05-12T21:02:59.212Z,11.30
2019-05-12T21:05:30.923Z,11.20
2019-05-12T21:08:05.424Z,11.20
2019-05-12T21:10:34.703Z,11.10
2019-05-12T21:13:05.164Z,11.10
2019-05-12T21:15:42.797Z,11.00
2019-05-12T21:18:10.408Z,11.00
2019-05-12T21:20:46.372Z,10.90
2019-05-12T21:23:14.524Z,10.90
2019-05-12T21:25:52.194Z,10.90
2019-05-12T21:28:16.554Z,10.80
2019-05-12T21:30:49.646Z,10.80
2019-05-12T21:33:20.562Z,10.70
2019-05-12T21:35:54.048Z,10.70
2019-05-12T21:38:29.428Z,10.60
2019-05-12T21:40:56.590Z,10.60
2019-05-12T21:43:27.000Z,10.60
2019-05-12T21:46:01.045Z,10.50
2019-05-12T21:48:30.520Z,10.50
2019-05-12T21:51:00.786Z,10.40
2019-05-12T21:53:31.599Z,10.40
2019-05-12T21:56:04.218Z,10.30
2019-05-12T21:58:34.498Z,10.30
2019-05-12T22:01:07.677Z,10.30
2019-05-12T22:03:38.232Z,10.30
2019-05-12T22:06:16.736Z,10.20
2019-05-12T22:08:41.566Z,10.20
2019-05-12T22:11:12.488Z,10.20
2019-05-12T22:13:47.206Z,10.10
2019-05-12T22:16:15.611Z,10.10
2019-05-12T22:18:47.873Z,10.10
2019-05-12T22:21:19.126Z,10.10
2019-05-12T22:23:51.443Z,10.10
2019-05-12T22:26:22.249Z,10.00
2019-05-12T22:28:53.701Z,10.00
2019-05-12T22:31:25.363Z,10.00
2019-05-12T22:33:56.549Z,10.00
2019-05-12T22:36:30.098Z,9.90
2019-05-12T22:39:01.052Z,9.90
2019-05-12T22:41:36.966Z,9.90
2019-05-12T22:44:06.575Z,9.90
2019-05-12T22:46:37.525Z,9.80
2019-05-12T22:49:10.515Z,9.80
2019-05-12T22:51:40.890Z,9.80
2019-05-12T22:54:13.541Z,9.80
2019-05-12T22:56:49.486Z,9.70
2019-05-12T22:59:17.011Z,9.70
2019-05-12T23:01:48.351Z,9.70
2019-05-12T23:04:18.686Z,9.70
2019-05-12T23:06:50.045Z,9.70
2019-05-12T23:09:26.019Z,9.70
2019-05-12T23:11:53.774Z,9.60
2019-05-12T23:14:25.126Z,9.60
2019-05-12T23:17:00.211Z,9.60
2019-05-12T23:19:27.753Z,9.60
2019-05-12T23:21:59.053Z,9.60
2019-05-12T23:24:30.515Z,9.60
2019-05-12T23:27:04.663Z,9.60
2019-05-12T23:29:34.699Z,9.60
2019-05-12T23:32:10.442Z,9.60
2019-05-12T23:34:38.536Z,9.60
2019-05-12T23:37:09.553Z,9.60
2019-05-12T23:39:40.088Z,9.50
2019-05-12T23:42:10.781Z,9.50
2019-05-12T23:44:44.191Z,9.50
2019-05-12T23:47:15.783Z,9.50
2019-05-12T23:49:46.103Z,9.50
2019-05-12T23:52:17.460Z,9.40
2019-05-12T23:54:47.792Z,9.40
2019-05-12T23:57:18.525Z,9.30
2019-05-12T23:59:49.257Z,9.40
